sensor_id;sensor_type;location;lat;lon;timestamp;pressure;altitude;pressure_sealevel;temperature;humidity
62059;BME280;48017;51.064;7.014;2022-12-18T08:05:25;102066.78;;;-6.77;100.00
62059;BME280;48017;51.064;7.014;2022-12-18T08:07:50;102066.66;;;-6.92;100.00
62059;BME280;48017;51.064;7.014;2022-12-18T08:10:16;102061.59;;;-6.83;100.00
62059;BME280;48017;51.064;7.014;2022-12-18T08:12:42;102055.63;;;-6.76;100.00
62059;BME280;48017;51.064;7.014;2022-12-18T08:15:08;102047.44;;;-6.26;100.00
62059;BME280;48017;51.064;7.014;2022-12-18T08:17:33;102049.19;;;-6.25;100.00
62059;BME280;48017;51.064;7.014;2022-12-18T08:19:59;102039.69;;;-6.32;100.00
62059;BME280;48017;51.064;7.014;2022-12-18T08:22:24;102038.75;;;-6.40;100.00
62059;BME280;48017;51.064;7.014;2022-12-18T08:24:50;102036.28;;;-6.25;100.00
62059;BME280;48017;51.064;7.014;2022-12-18T08:27:15;102028.75;;;-5.91;100.00
62059;BME280;48017;51.064;7.014;2022-12-18T08:29:40;102029.84;;;-5.39;100.00
62059;BME280;48017;51.064;7.014;2022-12-18T08:32:06;102022.94;;;-5.41;100.00
62059;BME280;48017;51.064;7.014;2022-12-18T08:34:31;102006.66;;;-4.99;99.13
62059;BME280;48017;51.064;7.014;2022-12-18T08:36:57;101997.19;;;-4.74;97.08
62059;BME280;48017;51.064;7.014;2022-12-18T08:39:26;101999.75;;;-4.94;97.28
62059;BME280;48017;51.064;7.014;2022-12-18T08:41:51;102004.09;;;-4.85;97.48
62059;BME280;48017;51.064;7.014;2022-12-18T08:44:36;102008.41;;;-4.57;95.05
62059;BME280;48017;51.064;7.014;2022-12-18T08:47:02;101998.88;;;-4.17;92.86
62059;BME280;48017;51.064;7.014;2022-12-18T08:49:28;102004.94;;;-4.31;92.94
62059;BME280;48017;51.064;7.014;2022-12-18T08:51:55;102011.81;;;-4.09;92.12
62059;BME280;48017;51.064;7.014;2022-12-18T08:54:20;102011.72;;;-3.79;90.73
62059;BME280;48017;51.064;7.014;2022-12-18T08:56:45;102009.88;;;-3.43;88.75
62059;BME280;48017;51.064;7.014;2022-12-18T08:59:11;102005.97;;;-2.70;85.04
62059;BME280;48017;51.064;7.014;2022-12-18T09:01:36;102007.56;;;-2.55;84.09
62059;BME280;48017;51.064;7.014;2022-12-18T09:04:01;102005.53;;;-2.18;82.41
62059;BME280;48017;51.064;7.014;2022-12-18T09:06:27;102008.59;;;-1.81;80.19
62059;BME280;48017;51.064;7.014;2022-12-18T09:08:52;102014.75;;;-0.08;74.55
62059;BME280;48017;51.064;7.014;2022-12-18T09:11:23;102008.44;;;-1.01;74.80
62059;BME280;48017;51.064;7.014;2022-12-18T09:13:50;102004.72;;;-1.47;77.92
62059;BME280;48017;51.064;7.014;2022-12-18T09:16:16;101999.94;;;-1.80;80.10
62059;BME280;48017;51.064;7.014;2022-12-18T09:18:41;101990.59;;;-1.98;80.82
62059;BME280;48017;51.064;7.014;2022-12-18T09:21:11;101989.16;;;-2.28;82.57
62059;BME280;48017;51.064;7.014;2022-12-18T09:23:37;101991.53;;;-2.04;81.89
62059;BME280;48017;51.064;7.014;2022-12-18T09:26:02;102002.28;;;-2.42;83.95
62059;BME280;48017;51.064;7.014;2022-12-18T09:28:28;101990.69;;;-2.09;83.21
62059;BME280;48017;51.064;7.014;2022-12-18T09:30:53;101988.47;;;-1.65;81.68
62059;BME280;48017;51.064;7.014;2022-12-18T09:33:19;101981.38;;;-1.54;79.23
62059;BME280;48017;51.064;7.014;2022-12-18T09:35:45;101981.81;;;-1.89;80.64
62059;BME280;48017;51.064;7.014;2022-12-18T09:38:18;101988.91;;;-2.05;81.54
62059;BME280;48017;51.064;7.014;2022-12-18T09:41:00;101982.84;;;-2.03;83.20
62059;BME280;48017;51.064;7.014;2022-12-18T09:43:35;101970.94;;;-2.23;82.80
62059;BME280;48017;51.064;7.014;2022-12-18T09:46:06;101968.03;;;-1.97;82.76
62059;BME280;48017;51.064;7.014;2022-12-18T09:48:35;101975.09;;;-2.09;83.85
62059;BME280;48017;51.064;7.014;2022-12-18T09:51:12;101961.72;;;-1.75;82.03
62059;BME280;48017;51.064;7.014;2022-12-18T09:53:38;101959.09;;;-1.72;81.70
62059;BME280;48017;51.064;7.014;2022-12-18T09:56:07;101960.72;;;-1.63;79.64
62059;BME280;48017;51.064;7.014;2022-12-18T09:58:45;101966.91;;;-1.72;80.14
62059;BME280;48017;51.064;7.014;2022-12-18T10:01:21;101967.66;;;-1.65;78.72
62059;BME280;48017;51.064;7.014;2022-12-18T10:03:47;101963.22;;;-1.56;79.05
62059;BME280;48017;51.064;7.014;2022-12-18T10:06:17;101959.53;;;-1.39;78.70
62059;BME280;48017;51.064;7.014;2022-12-18T10:09:07;101944.13;;;-1.55;80.04
62059;BME280;48017;51.064;7.014;2022-12-18T10:12:08;101939.78;;;-1.54;79.83
62059;BME280;48017;51.064;7.014;2022-12-18T10:14:54;101944.09;;;-1.52;77.92
62059;BME280;48017;51.064;7.014;2022-12-18T10:17:56;101943.78;;;-1.30;77.96
62059;BME280;48017;51.064;7.014;2022-12-18T10:20:44;101938.63;;;-1.33;76.58
62059;BME280;48017;51.064;7.014;2022-12-18T10:26:12;101926.03;;;-1.04;75.73
62059;BME280;48017;51.064;7.014;2022-12-18T10:28:40;101909.59;;;-1.06;76.88
62059;BME280;48017;51.064;7.014;2022-12-18T10:31:06;101909.09;;;-0.75;75.30
62059;BME280;48017;51.064;7.014;2022-12-18T10:33:33;101913.41;;;-0.74;75.16
62059;BME280;48017;51.064;7.014;2022-12-18T10:35:59;101926.88;;;-1.00;73.94
62059;BME280;48017;51.064;7.014;2022-12-18T10:38:28;101922.91;;;-0.70;73.25
62059;BME280;48017;51.064;7.014;2022-12-18T10:41:05;101931.09;;;-0.44;73.93
62059;BME280;48017;51.064;7.014;2022-12-18T10:43:36;101914.50;;;-0.38;72.65
62059;BME280;48017;51.064;7.014;2022-12-18T10:48:36;101904.13;;;-0.40;71.30
62059;BME280;48017;51.064;7.014;2022-12-18T10:51:06;101915.63;;;-0.53;71.85
62059;BME280;48017;51.064;7.014;2022-12-18T10:53:34;101918.41;;;-0.61;71.30
62059;BME280;48017;51.064;7.014;2022-12-18T10:56:00;101900.09;;;-0.13;70.19
62059;BME280;48017;51.064;7.014;2022-12-18T10:58:32;101899.53;;;-0.27;69.55
62059;BME280;48017;51.064;7.014;2022-12-18T11:06:22;101892.91;;;-0.45;71.87
62059;BME280;48017;51.064;7.014;2022-12-18T11:09:03;101889.31;;;-0.38;71.88
62059;BME280;48017;51.064;7.014;2022-12-18T11:11:29;101900.78;;;-0.48;73.35
62059;BME280;48017;51.064;7.014;2022-12-18T11:14:03;101900.16;;;-0.62;72.07
62059;BME280;48017;51.064;7.014;2022-12-18T11:16:33;101888.22;;;-0.74;73.03
62059;BME280;48017;51.064;7.014;2022-12-18T11:21:47;101885.53;;;-0.69;72.52
62059;BME280;48017;51.064;7.014;2022-12-18T11:24:33;101881.31;;;-0.28;71.83
62059;BME280;48017;51.064;7.014;2022-12-18T11:27:05;101877.38;;;-0.49;72.40
62059;BME280;48017;51.064;7.014;2022-12-18T11:29:40;101880.03;;;-0.54;73.10
62059;BME280;48017;51.064;7.014;2022-12-18T11:34:59;101879.78;;;-0.39;72.97
62059;BME280;48017;51.064;7.014;2022-12-18T11:37:27;101870.94;;;-0.32;72.23
62059;BME280;48017;51.064;7.014;2022-12-18T11:40:00;101867.16;;;-0.60;72.38
62059;BME280;48017;51.064;7.014;2022-12-18T11:42:48;101859.34;;;-0.60;73.14
62059;BME280;48017;51.064;7.014;2022-12-18T11:45:35;101839.56;;;-0.72;73.26
62059;BME280;48017;51.064;7.014;2022-12-18T11:53:02;101842.78;;;-0.57;73.61
62059;BME280;48017;51.064;7.014;2022-12-18T11:58:21;101838.06;;;-0.85;74.68
62059;BME280;48017;51.064;7.014;2022-12-18T12:01:23;101822.38;;;-0.82;74.42
62059;BME280;48017;51.064;7.014;2022-12-18T12:09:30;101831.38;;;-0.98;75.26
62059;BME280;48017;51.064;7.014;2022-12-18T12:12:27;101842.78;;;-1.07;76.02
62059;BME280;48017;51.064;7.014;2022-12-18T12:17:58;101836.84;;;-1.15;75.94
62059;BME280;48017;51.064;7.014;2022-12-18T12:20:38;101834.25;;;-1.15;77.00
62059;BME280;48017;51.064;7.014;2022-12-18T12:26:06;101831.75;;;-1.21;77.22
62059;BME280;48017;51.064;7.014;2022-12-18T12:28:42;101857.84;;;-1.26;76.82
62059;BME280;48017;51.064;7.014;2022-12-18T12:36:22;101805.53;;;-1.09;77.24
62059;BME280;48017;51.064;7.014;2022-12-18T12:38:54;101790.84;;;-1.14;77.76
62059;BME280;48017;51.064;7.014;2022-12-18T12:41:24;101793.47;;;-1.14;77.92
62059;BME280;48017;51.064;7.014;2022-12-18T12:44:20;101811.00;;;-1.26;78.11
62059;BME280;48017;51.064;7.014;2022-12-18T12:46:47;101817.88;;;-1.20;77.68
62059;BME280;48017;51.064;7.014;2022-12-18T12:49:17;101816.22;;;-1.26;78.07
62059;BME280;48017;51.064;7.014;2022-12-18T12:51:47;101805.78;;;-1.24;77.59
62059;BME280;48017;51.064;7.014;2022-12-18T12:54:19;101795.56;;;-1.36;77.63
62059;BME280;48017;51.064;7.014;2022-12-18T13:00:05;101793.50;;;-1.16;78.14
62059;BME280;48017;51.064;7.014;2022-12-18T13:02:39;101783.91;;;-1.14;78.19
62059;BME280;48017;51.064;7.014;2022-12-18T13:07:54;101800.31;;;-1.09;77.81
62059;BME280;48017;51.064;7.014;2022-12-18T13:13:09;101814.28;;;-1.14;78.03
62059;BME280;48017;51.064;7.014;2022-12-18T13:15:41;101802.03;;;-1.08;77.58
62059;BME280;48017;51.064;7.014;2022-12-18T13:20:43;101812.00;;;-1.34;78.39
62059;BME280;48017;51.064;7.014;2022-12-18T13:26:37;101823.34;;;-1.37;77.19
62059;BME280;48017;51.064;7.014;2022-12-18T13:31:12;101813.00;;;-1.41;77.25
62059;BME280;48017;51.064;7.014;2022-12-18T13:36:29;101803.13;;;-1.21;76.32
62059;BME280;48017;51.064;7.014;2022-12-18T13:42:34;101793.03;;;-1.39;76.76
62059;BME280;48017;51.064;7.014;2022-12-18T13:44:59;101785.38;;;-1.49;76.46
62059;BME280;48017;51.064;7.014;2022-12-18T13:47:27;101794.97;;;-1.52;77.40
62059;BME280;48017;51.064;7.014;2022-12-18T13:49:56;101768.94;;;-1.51;77.87
62059;BME280;48017;51.064;7.014;2022-12-18T13:52:24;101773.13;;;-1.42;77.47
62059;BME280;48017;51.064;7.014;2022-12-18T13:54:53;101777.50;;;-1.46;78.17
62059;BME280;48017;51.064;7.014;2022-12-18T13:57:34;101762.56;;;-1.34;78.30
62059;BME280;48017;51.064;7.014;2022-12-18T14:00:24;101734.84;;;-1.35;77.18
62059;BME280;48017;51.064;7.014;2022-12-18T14:02:51;101744.44;;;-1.39;77.79
62059;BME280;48017;51.064;7.014;2022-12-18T14:05:29;101764.53;;;-1.47;78.79
62059;BME280;48017;51.064;7.014;2022-12-18T14:08:05;101760.03;;;-1.37;77.75
62059;BME280;48017;51.064;7.014;2022-12-18T14:10:31;101757.59;;;-1.47;77.55
62059;BME280;48017;51.064;7.014;2022-12-18T14:13:06;101749.75;;;-1.45;78.32
62059;BME280;48017;51.064;7.014;2022-12-18T14:15:39;101749.75;;;-1.45;78.12
62059;BME280;48017;51.064;7.014;2022-12-18T14:21:00;101740.34;;;-1.54;77.99
62059;BME280;48017;51.064;7.014;2022-12-18T14:23:36;101732.47;;;-1.48;78.51
62059;BME280;48017;51.064;7.014;2022-12-18T14:26:18;101730.00;;;-1.57;78.24
62059;BME280;48017;51.064;7.014;2022-12-18T14:28:44;101729.97;;;-1.55;78.79
62059;BME280;48017;51.064;7.014;2022-12-18T14:31:24;101716.81;;;-1.46;77.71
62059;BME280;48017;51.064;7.014;2022-12-18T14:33:50;101715.25;;;-1.56;78.54
62059;BME280;48017;51.064;7.014;2022-12-18T14:36:23;101724.75;;;-1.52;78.84
62059;BME280;48017;51.064;7.014;2022-12-18T14:38:57;101726.63;;;-1.62;78.31
62059;BME280;48017;51.064;7.014;2022-12-18T14:41:23;101707.50;;;-1.59;78.59
62059;BME280;48017;51.064;7.014;2022-12-18T14:43:51;101707.63;;;-1.67;78.96
62059;BME280;48017;51.064;7.014;2022-12-18T14:48:59;101700.59;;;-1.60;77.72
62059;BME280;48017;51.064;7.014;2022-12-18T14:51:27;101717.25;;;-1.70;78.73
62059;BME280;48017;51.064;7.014;2022-12-18T14:54:00;101722.56;;;-1.78;79.09
62059;BME280;48017;51.064;7.014;2022-12-18T14:56:31;101717.41;;;-1.81;78.74
62059;BME280;48017;51.064;7.014;2022-12-18T14:59:03;101713.59;;;-1.60;77.94
62059;BME280;48017;51.064;7.014;2022-12-18T15:01:34;101697.16;;;-1.61;77.64
62059;BME280;48017;51.064;7.014;2022-12-18T15:04:02;101707.75;;;-1.75;78.43
62059;BME280;48017;51.064;7.014;2022-12-18T15:06:31;101695.50;;;-1.66;78.28
62059;BME280;48017;51.064;7.014;2022-12-18T15:08:59;101696.66;;;-1.84;79.18
62059;BME280;48017;51.064;7.014;2022-12-18T15:11:30;101689.38;;;-1.64;78.13
62059;BME280;48017;51.064;7.014;2022-12-18T15:13:58;101693.72;;;-1.64;78.82
62059;BME280;48017;51.064;7.014;2022-12-18T15:16:24;101689.56;;;-1.73;78.21
62059;BME280;48017;51.064;7.014;2022-12-18T15:18:50;101703.41;;;-1.72;78.52
62059;BME280;48017;51.064;7.014;2022-12-18T15:21:18;101686.31;;;-1.87;79.02
62059;BME280;48017;51.064;7.014;2022-12-18T15:26:13;101677.66;;;-1.88;79.95
62059;BME280;48017;51.064;7.014;2022-12-18T15:28:55;101696.75;;;-1.90;79.53
62059;BME280;48017;51.064;7.014;2022-12-18T15:31:29;101702.84;;;-1.91;79.17
62059;BME280;48017;51.064;7.014;2022-12-18T15:36:23;101689.00;;;-1.92;79.60
62059;BME280;48017;51.064;7.014;2022-12-18T15:38:52;101691.75;;;-2.03;80.17
62059;BME280;48017;51.064;7.014;2022-12-18T15:41:20;101682.25;;;-2.05;80.60
62059;BME280;48017;51.064;7.014;2022-12-18T15:43:47;101685.59;;;-1.97;79.55
62059;BME280;48017;51.064;7.014;2022-12-18T15:46:21;101684.72;;;-1.96;79.53
62059;BME280;48017;51.064;7.014;2022-12-18T15:48:51;101689.00;;;-1.95;79.77
62059;BME280;48017;51.064;7.014;2022-12-18T15:53:47;101692.53;;;-1.97;79.92
62059;BME280;48017;51.064;7.014;2022-12-18T15:56:14;101677.75;;;-1.94;79.87
62059;BME280;48017;51.064;7.014;2022-12-18T15:58:59;101666.72;;;-2.08;80.81
62059;BME280;48017;51.064;7.014;2022-12-18T16:01:29;101681.25;;;-1.96;80.66
62059;BME280;48017;51.064;7.014;2022-12-18T16:03:55;101688.38;;;-2.09;81.53
62059;BME280;48017;51.064;7.014;2022-12-18T16:06:21;101686.69;;;-2.12;82.30
62059;BME280;48017;51.064;7.014;2022-12-18T16:08:47;101691.88;;;-2.10;82.07
62059;BME280;48017;51.064;7.014;2022-12-18T16:11:27;101679.63;;;-2.02;81.97
62059;BME280;48017;51.064;7.014;2022-12-18T16:14:20;101672.06;;;-2.19;83.31
62059;BME280;48017;51.064;7.014;2022-12-18T16:16:48;101691.97;;;-2.18;83.54
62059;BME280;48017;51.064;7.014;2022-12-18T16:19:14;101685.84;;;-2.12;83.43
62059;BME280;48017;51.064;7.014;2022-12-18T16:21:40;101674.66;;;-2.19;84.00
62059;BME280;48017;51.064;7.014;2022-12-18T16:24:05;101662.44;;;-2.11;84.26
62059;BME280;48017;51.064;7.014;2022-12-18T16:26:35;101674.66;;;-2.19;84.95
62059;BME280;48017;51.064;7.014;2022-12-18T16:29:00;101661.72;;;-2.20;85.51
62059;BME280;48017;51.064;7.014;2022-12-18T16:31:25;101687.75;;;-2.25;85.75
62059;BME280;48017;51.064;7.014;2022-12-18T16:36:37;101703.44;;;-2.31;87.39
62059;BME280;48017;51.064;7.014;2022-12-18T16:39:02;101695.50;;;-2.22;86.75
62059;BME280;48017;51.064;7.014;2022-12-18T16:41:28;101692.22;;;-2.33;87.29
62059;BME280;48017;51.064;7.014;2022-12-18T16:43:56;101686.84;;;-2.21;87.37
62059;BME280;48017;51.064;7.014;2022-12-18T16:46:22;101669.59;;;-2.28;87.62
62059;BME280;48017;51.064;7.014;2022-12-18T16:48:47;101671.31;;;-2.27;87.54
62059;BME280;48017;51.064;7.014;2022-12-18T16:51:12;101683.47;;;-2.29;88.67
62059;BME280;48017;51.064;7.014;2022-12-18T16:53:38;101676.50;;;-2.24;87.90
62059;BME280;48017;51.064;7.014;2022-12-18T16:56:03;101677.34;;;-2.25;88.58
62059;BME280;48017;51.064;7.014;2022-12-18T16:58:28;101660.84;;;-2.21;88.25
62059;BME280;48017;51.064;7.014;2022-12-18T17:00:53;101681.81;;;-2.33;88.87
62059;BME280;48017;51.064;7.014;2022-12-18T17:03:19;101665.28;;;-2.29;88.55
62059;BME280;48017;51.064;7.014;2022-12-18T17:05:44;101649.88;;;-2.40;89.46
62059;BME280;48017;51.064;7.014;2022-12-18T17:08:09;101665.13;;;-2.18;88.87
62059;BME280;48017;51.064;7.014;2022-12-18T17:10:35;101682.66;;;-2.31;88.96
62059;BME280;48017;51.064;7.014;2022-12-18T17:13:00;101673.00;;;-2.23;89.00
62059;BME280;48017;51.064;7.014;2022-12-18T17:15:26;101681.78;;;-2.32;89.37
62059;BME280;48017;51.064;7.014;2022-12-18T17:17:51;101691.41;;;-2.38;89.39
62059;BME280;48017;51.064;7.014;2022-12-18T17:20:16;101707.84;;;-2.38;89.59
62059;BME280;48017;51.064;7.014;2022-12-18T17:22:41;101700.84;;;-2.31;89.52
62059;BME280;48017;51.064;7.014;2022-12-18T17:25:07;101697.34;;;-2.30;89.46
62059;BME280;48017;51.064;7.014;2022-12-18T17:27:33;101686.22;;;-2.40;90.08
62059;BME280;48017;51.064;7.014;2022-12-18T17:29:58;101687.97;;;-2.40;90.49
62059;BME280;48017;51.064;7.014;2022-12-18T17:32:23;101669.72;;;-2.34;89.74
62059;BME280;48017;51.064;7.014;2022-12-18T17:34:48;101643.00;;;-2.45;90.58
62059;BME280;48017;51.064;7.014;2022-12-18T17:37:14;101679.44;;;-2.50;90.52
62059;BME280;48017;51.064;7.014;2022-12-18T17:39:40;101662.84;;;-2.40;90.65
62059;BME280;48017;51.064;7.014;2022-12-18T17:42:06;101669.88;;;-2.46;91.21
62059;BME280;48017;51.064;7.014;2022-12-18T17:44:34;101674.19;;;-2.44;90.71
62059;BME280;48017;51.064;7.014;2022-12-18T17:46:59;101652.66;;;-2.52;91.42
62059;BME280;48017;51.064;7.014;2022-12-18T17:49:25;101643.94;;;-2.49;91.41
62059;BME280;48017;51.064;7.014;2022-12-18T17:51:50;101656.16;;;-2.54;91.63
62059;BME280;48017;51.064;7.014;2022-12-18T17:54:15;101672.50;;;-2.49;91.36
62059;BME280;48017;51.064;7.014;2022-12-18T17:56:41;101663.09;;;-2.56;91.67
62059;BME280;48017;51.064;7.014;2022-12-18T17:59:06;101680.44;;;-2.58;91.84
62059;BME280;48017;51.064;7.014;2022-12-18T18:01:31;101684.81;;;-2.62;91.73
62059;BME280;48017;51.064;7.014;2022-12-18T18:03:57;101687.25;;;-2.50;91.64
62059;BME280;48017;51.064;7.014;2022-12-18T18:06:24;101692.47;;;-2.51;91.68
62059;BME280;48017;51.064;7.014;2022-12-18T18:08:50;101680.56;;;-2.69;92.46
62059;BME280;48017;51.064;7.014;2022-12-18T18:11:18;101689.03;;;-2.53;91.76
62059;BME280;48017;51.064;7.014;2022-12-18T18:14:04;101702.88;;;-2.56;91.76
62059;BME280;48017;51.064;7.014;2022-12-18T18:16:39;101687.44;;;-2.67;92.43
62059;BME280;48017;51.064;7.014;2022-12-18T18:19:08;101688.25;;;-2.60;91.62
62059;BME280;48017;51.064;7.014;2022-12-18T18:21:37;101674.34;;;-2.54;91.57
62059;BME280;48017;51.064;7.014;2022-12-18T18:24:03;101681.41;;;-2.66;92.49
62059;BME280;48017;51.064;7.014;2022-12-18T18:26:31;101687.44;;;-2.67;92.05
62059;BME280;48017;51.064;7.014;2022-12-18T18:28:58;101693.41;;;-2.58;91.90
62059;BME280;48017;51.064;7.014;2022-12-18T18:31:23;101700.38;;;-2.61;92.15
62059;BME280;48017;51.064;7.014;2022-12-18T18:33:49;101692.66;;;-2.65;92.57
62059;BME280;48017;51.064;7.014;2022-12-18T18:36:14;101704.84;;;-2.73;92.87
62059;BME280;48017;51.064;7.014;2022-12-18T18:38:40;101697.91;;;-2.71;92.52
62059;BME280;48017;51.064;7.014;2022-12-18T18:41:06;101704.78;;;-2.69;92.31
62059;BME280;48017;51.064;7.014;2022-12-18T18:43:31;101702.16;;;-2.64;91.82
62059;BME280;48017;51.064;7.014;2022-12-18T18:45:58;101697.78;;;-2.61;92.07
62059;BME280;48017;51.064;7.014;2022-12-18T18:48:25;101704.63;;;-2.56;92.03
62059;BME280;48017;51.064;7.014;2022-12-18T18:51:02;101684.75;;;-2.59;92.12
62059;BME280;48017;51.064;7.014;2022-12-18T18:53:28;101677.97;;;-2.69;92.54
62059;BME280;48017;51.064;7.014;2022-12-18T18:55:57;101677.00;;;-2.61;92.57
62059;BME280;48017;51.064;7.014;2022-12-18T18:58:23;101682.03;;;-2.50;91.64
62059;BME280;48017;51.064;7.014;2022-12-18T19:01:04;101676.03;;;-2.53;91.87
62059;BME280;48017;51.064;7.014;2022-12-18T19:03:30;101678.59;;;-2.50;91.32
62059;BME280;48017;51.064;7.014;2022-12-18T19:05:57;101672.56;;;-2.52;91.20
62059;BME280;48017;51.064;7.014;2022-12-18T19:08:25;101680.41;;;-2.57;92.21
62059;BME280;48017;51.064;7.014;2022-12-18T19:10:52;101666.59;;;-2.59;92.47
62059;BME280;48017;51.064;7.014;2022-12-18T19:13:19;101664.59;;;-2.40;91.31
62059;BME280;48017;51.064;7.014;2022-12-18T19:15:50;101665.50;;;-2.43;90.99
62059;BME280;48017;51.064;7.014;2022-12-18T19:18:16;101662.25;;;-2.58;92.33
62059;BME280;48017;51.064;7.014;2022-12-18T19:20:42;101663.88;;;-2.50;91.96
62059;BME280;48017;51.064;7.014;2022-12-18T19:23:08;101663.09;;;-2.56;91.81
62059;BME280;48017;51.064;7.014;2022-12-18T19:25:38;101647.34;;;-2.44;90.97
62059;BME280;48017;51.064;7.014;2022-12-18T19:28:04;101663.97;;;-2.57;92.11
62059;BME280;48017;51.064;7.014;2022-12-18T19:30:30;101655.97;;;-2.42;90.84
62059;BME280;48017;51.064;7.014;2022-12-18T19:32:56;101669.84;;;-2.43;90.86
62059;BME280;48017;51.064;7.014;2022-12-18T19:35:21;101668.03;;;-2.38;90.72
62059;BME280;48017;51.064;7.014;2022-12-18T19:37:46;101663.66;;;-2.35;90.27
62059;BME280;48017;51.064;7.014;2022-12-18T19:40:12;101661.03;;;-2.33;90.18
62059;BME280;48017;51.064;7.014;2022-12-18T19:42:37;101651.50;;;-2.33;90.84
62059;BME280;48017;51.064;7.014;2022-12-18T19:45:03;101659.31;;;-2.34;90.35
62059;BME280;48017;51.064;7.014;2022-12-18T19:47:28;101645.44;;;-2.33;90.26
62059;BME280;48017;51.064;7.014;2022-12-18T19:49:54;101643.69;;;-2.31;90.37
62059;BME280;48017;51.064;7.014;2022-12-18T19:52:19;101638.53;;;-2.34;91.14
62059;BME280;48017;51.064;7.014;2022-12-18T19:54:44;101644.44;;;-2.23;90.19
62059;BME280;48017;51.064;7.014;2022-12-18T19:57:11;101639.25;;;-2.26;90.47
62059;BME280;48017;51.064;7.014;2022-12-18T19:59:36;101647.97;;;-2.28;91.36
62059;BME280;48017;51.064;7.014;2022-12-18T20:02:02;101650.50;;;-2.24;90.53
62059;BME280;48017;51.064;7.014;2022-12-18T20:04:27;101652.25;;;-2.26;91.47
62059;BME280;48017;51.064;7.014;2022-12-18T20:06:53;101670.41;;;-2.23;91.26
62059;BME280;48017;51.064;7.014;2022-12-18T20:09:20;101652.16;;;-2.20;90.79
62059;BME280;48017;51.064;7.014;2022-12-18T20:11:45;101649.31;;;-2.05;90.06
62059;BME280;48017;51.064;7.014;2022-12-18T20:14:13;101661.56;;;-2.11;90.53
62059;BME280;48017;51.064;7.014;2022-12-18T20:16:39;101679.59;;;-2.00;89.87
62059;BME280;48017;51.064;7.014;2022-12-18T20:19:04;101663.22;;;-2.07;91.15
62059;BME280;48017;51.064;7.014;2022-12-18T20:21:30;101671.78;;;-2.00;90.37
62059;BME280;48017;51.064;7.014;2022-12-18T20:23:56;101676.06;;;-1.96;90.07
62059;BME280;48017;51.064;7.014;2022-12-18T20:26:23;101662.25;;;-2.00;90.48
62059;BME280;48017;51.064;7.014;2022-12-18T20:28:49;101662.22;;;-1.98;90.91
62059;BME280;48017;51.064;7.014;2022-12-18T20:31:14;101659.47;;;-1.89;90.11
62059;BME280;48017;51.064;7.014;2022-12-18T20:33:40;101653.53;;;-1.97;90.63
62059;BME280;48017;51.064;7.014;2022-12-18T20:36:09;101645.59;;;-1.88;90.48
62059;BME280;48017;51.064;7.014;2022-12-18T20:38:35;101645.78;;;-1.99;90.96
62059;BME280;48017;51.064;7.014;2022-12-18T20:41:06;101648.25;;;-1.91;90.59
62059;BME280;48017;51.064;7.014;2022-12-18T20:43:32;101654.28;;;-1.89;90.69
62059;BME280;48017;51.064;7.014;2022-12-18T20:46:02;101654.13;;;-1.80;91.14
62059;BME280;48017;51.064;7.014;2022-12-18T20:48:29;101663.63;;;-1.78;90.91
62059;BME280;48017;51.064;7.014;2022-12-18T20:51:03;101662.69;;;-1.73;90.04
62059;BME280;48017;51.064;7.014;2022-12-18T20:53:30;101669.63;;;-1.72;90.57
62059;BME280;48017;51.064;7.014;2022-12-18T20:55:55;101677.38;;;-1.71;90.96
62059;BME280;48017;51.064;7.014;2022-12-18T20:58:21;101669.47;;;-1.65;89.96
62059;BME280;48017;51.064;7.014;2022-12-18T21:00:46;101676.72;;;-1.82;91.52
62059;BME280;48017;51.064;7.014;2022-12-18T21:03:12;101679.09;;;-1.70;90.58
62059;BME280;48017;51.064;7.014;2022-12-18T21:05:37;101673.91;;;-1.70;90.47
62059;BME280;48017;51.064;7.014;2022-12-18T21:08:03;101677.16;;;-1.59;90.00
62059;BME280;48017;51.064;7.014;2022-12-18T21:10:28;101670.31;;;-1.63;90.70
62059;BME280;48017;51.064;7.014;2022-12-18T21:12:54;101676.56;;;-1.73;90.63
62059;BME280;48017;51.064;7.014;2022-12-18T21:15:19;101675.66;;;-1.72;91.90
62059;BME280;48017;51.064;7.014;2022-12-18T21:17:44;101661.56;;;-1.59;90.13
62059;BME280;48017;51.064;7.014;2022-12-18T21:20:11;101658.06;;;-1.58;90.66
62059;BME280;48017;51.064;7.014;2022-12-18T21:22:38;101664.38;;;-1.71;91.68
62059;BME280;48017;51.064;7.014;2022-12-18T21:25:03;101646.81;;;-1.58;90.39
62059;BME280;48017;51.064;7.014;2022-12-18T21:27:29;101644.31;;;-1.63;90.80
62059;BME280;48017;51.064;7.014;2022-12-18T21:29:54;101651.22;;;-1.62;90.51
62059;BME280;48017;51.064;7.014;2022-12-18T21:32:20;101643.41;;;-1.62;91.24
62059;BME280;48017;51.064;7.014;2022-12-18T21:34:45;101638.94;;;-1.55;90.42
62059;BME280;48017;51.064;7.014;2022-12-18T21:37:10;101648.63;;;-1.62;91.31
62059;BME280;48017;51.064;7.014;2022-12-18T21:39:36;101665.16;;;-1.67;92.52
62059;BME280;48017;51.064;7.014;2022-12-18T21:42:01;101649.59;;;-1.69;93.70
62059;BME280;48017;51.064;7.014;2022-12-18T21:44:49;101652.72;;;-1.49;92.95
62059;BME280;48017;51.064;7.014;2022-12-18T21:47:15;101647.59;;;-1.55;93.38
62059;BME280;48017;51.064;7.014;2022-12-18T21:49:40;101641.38;;;-1.46;93.41
62059;BME280;48017;51.064;7.014;2022-12-18T21:52:06;101638.97;;;-1.57;95.31
62059;BME280;48017;51.064;7.014;2022-12-18T21:54:32;101632.72;;;-1.47;94.64
62059;BME280;48017;51.064;7.014;2022-12-18T21:56:59;101635.31;;;-1.47;96.25
62059;BME280;48017;51.064;7.014;2022-12-18T22:01:58;101627.53;;;-1.47;98.22
62059;BME280;48017;51.064;7.014;2022-12-18T22:04:24;101619.84;;;-1.53;100.00
62059;BME280;48017;51.064;7.014;2022-12-18T22:06:50;101618.94;;;-1.50;100.00
62059;BME280;48017;51.064;7.014;2022-12-18T22:09:18;101607.66;;;-1.51;100.00
62059;BME280;48017;51.064;7.014;2022-12-18T22:11:44;101610.31;;;-1.54;100.00
62059;BME280;48017;51.064;7.014;2022-12-18T22:14:10;101604.28;;;-1.56;100.00
62059;BME280;48017;51.064;7.014;2022-12-18T22:16:35;101603.31;;;-1.50;100.00
62059;BME280;48017;51.064;7.014;2022-12-18T22:19:01;101599.03;;;-1.53;100.00
62059;BME280;48017;51.064;7.014;2022-12-18T22:21:31;101586.00;;;-1.51;100.00
62059;BME280;48017;51.064;7.014;2022-12-18T22:24:02;101592.94;;;-1.52;100.00
62059;BME280;48017;51.064;7.014;2022-12-18T22:26:30;101581.69;;;-1.54;100.00